sensor_id;sensor_type;location;lat;lon;timestamp;pressure;altitude;pressure_sealevel;temperature;humidity
45525;BME280;31437;58.350;13.828;2022-11-20T00:00:40;99865.44;;;-2.21;100.00
45525;BME280;31437;58.350;13.828;2022-11-20T00:03:06;99870.63;;;-2.22;100.00
45525;BME280;31437;58.350;13.828;2022-11-20T00:05:32;99878.34;;;-2.25;100.00
45525;BME280;31437;58.350;13.828;2022-11-20T00:07:58;99876.66;;;-2.31;100.00
45525;BME280;31437;58.350;13.828;2022-11-20T00:10:24;99875.81;;;-2.33;100.00
45525;BME280;31437;58.350;13.828;2022-11-20T00:12:49;99877.56;;;-2.38;100.00
45525;BME280;31437;58.350;13.828;2022-11-20T00:15:15;99881.88;;;-2.43;100.00
45525;BME280;31437;58.350;13.828;2022-11-20T00:17:40;99881.91;;;-2.46;100.00
45525;BME280;31437;58.350;13.828;2022-11-20T00:20:05;99875.06;;;-2.51;100.00
45525;BME280;31437;58.350;13.828;2022-11-20T00:22:32;99868.22;;;-2.53;100.00
45525;BME280;31437;58.350;13.828;2022-11-20T00:24:57;99881.97;;;-2.56;100.00
45525;BME280;31437;58.350;13.828;2022-11-20T00:27:22;99879.41;;;-2.57;100.00
45525;BME280;31437;58.350;13.828;2022-11-20T00:29:49;99874.28;;;-2.59;100.00
45525;BME280;31437;58.350;13.828;2022-11-20T00:32:14;99876.84;;;-2.59;100.00
45525;BME280;31437;58.350;13.828;2022-11-20T00:34:41;99866.56;;;-2.60;100.00
45525;BME280;31437;58.350;13.828;2022-11-20T00:37:07;99875.16;;;-2.61;100.00
45525;BME280;31437;58.350;13.828;2022-11-20T00:39:33;99881.13;;;-2.62;100.00
45525;BME280;31437;58.350;13.828;2022-11-20T00:41:59;99892.28;;;-2.66;100.00
45525;BME280;31437;58.350;13.828;2022-11-20T00:44:24;99888.03;;;-2.69;100.00
45525;BME280;31437;58.350;13.828;2022-11-20T03:15:11;99815.44;;;-2.97;100.00
45525;BME280;31437;58.350;13.828;2022-11-20T03:17:36;99806.00;;;-2.95;100.00
45525;BME280;31437;58.350;13.828;2022-11-20T03:20:01;99798.31;;;-2.93;100.00
45525;BME280;31437;58.350;13.828;2022-11-20T03:22:28;99794.00;;;-2.93;100.00
45525;BME280;31437;58.350;13.828;2022-11-20T03:24:54;99792.28;;;-2.92;100.00
45525;BME280;31437;58.350;13.828;2022-11-20T03:27:19;99785.44;;;-2.90;100.00
45525;BME280;31437;58.350;13.828;2022-11-20T03:29:44;99782.88;;;-2.90;100.00
45525;BME280;31437;58.350;13.828;2022-11-20T03:32:10;99782.88;;;-2.90;100.00
45525;BME280;31437;58.350;13.828;2022-11-20T03:34:35;99772.63;;;-2.90;100.00
45525;BME280;31437;58.350;13.828;2022-11-20T03:37:00;99770.03;;;-2.89;100.00
45525;BME280;31437;58.350;13.828;2022-11-20T03:39:25;99770.91;;;-2.90;100.00
45525;BME280;31437;58.350;13.828;2022-11-20T03:41:51;99766.59;;;-2.89;100.00
45525;BME280;31437;58.350;13.828;2022-11-20T03:44:16;99767.47;;;-2.90;100.00
45525;BME280;31437;58.350;13.828;2022-11-20T03:46:42;99758.91;;;-2.89;100.00
45525;BME280;31437;58.350;13.828;2022-11-20T03:49:07;99761.47;;;-2.89;100.00
45525;BME280;31437;58.350;13.828;2022-11-20T03:51:33;99747.78;;;-2.90;100.00
45525;BME280;31437;58.350;13.828;2022-11-20T03:54:03;99751.22;;;-2.88;100.00
45525;BME280;31437;58.350;13.828;2022-11-20T03:56:30;99748.63;;;-2.86;100.00
45525;BME280;31437;58.350;13.828;2022-11-20T03:58:56;99747.78;;;-2.85;100.00
45525;BME280;31437;58.350;13.828;2022-11-20T04:01:22;99736.63;;;-2.84;100.00
45525;BME280;31437;58.350;13.828;2022-11-20T04:03:48;99735.75;;;-2.83;100.00
45525;BME280;31437;58.350;13.828;2022-11-20T04:06:15;99740.03;;;-2.82;100.00
45525;BME280;31437;58.350;13.828;2022-11-20T04:08:41;99742.59;;;-2.81;100.00
45525;BME280;31437;58.350;13.828;2022-11-20T04:11:17;99738.31;;;-2.80;100.00
45525;BME280;31437;58.350;13.828;2022-11-20T04:13:45;99726.31;;;-2.78;100.00
45525;BME280;31437;58.350;13.828;2022-11-20T04:16:10;99717.75;;;-2.77;100.00
45525;BME280;31437;58.350;13.828;2022-11-20T04:18:36;99725.44;;;-2.76;100.00
45525;BME280;31437;58.350;13.828;2022-11-20T04:21:02;99721.16;;;-2.75;100.00
45525;BME280;31437;58.350;13.828;2022-11-20T04:23:28;99721.16;;;-2.73;100.00
45525;BME280;31437;58.350;13.828;2022-11-20T04:25:54;99716.84;;;-2.71;100.00
45525;BME280;31437;58.350;13.828;2022-11-20T04:28:20;99716.81;;;-2.68;100.00
45525;BME280;31437;58.350;13.828;2022-11-20T04:30:45;99709.97;;;-2.66;100.00
45525;BME280;31437;58.350;13.828;2022-11-20T04:33:11;99707.38;;;-2.63;100.00
45525;BME280;31437;58.350;13.828;2022-11-20T04:35:36;99701.34;;;-2.62;100.00
45525;BME280;31437;58.350;13.828;2022-11-20T04:38:02;99697.09;;;-2.62;100.00
45525;BME280;31437;58.350;13.828;2022-11-20T04:40:27;99695.38;;;-2.63;100.00
45525;BME280;31437;58.350;13.828;2022-11-20T04:42:53;99695.38;;;-2.63;100.00
45525;BME280;31437;58.350;13.828;2022-11-20T04:45:18;99687.66;;;-2.63;100.00
45525;BME280;31437;58.350;13.828;2022-11-20T04:47:44;99688.50;;;-2.62;100.00
45525;BME280;31437;58.350;13.828;2022-11-20T04:50:09;99689.38;;;-2.63;100.00
45525;BME280;31437;58.350;13.828;2022-11-20T04:52:36;99682.56;;;-2.64;100.00
45525;BME280;31437;58.350;13.828;2022-11-20T04:55:02;99680.00;;;-2.64;100.00
45525;BME280;31437;58.350;13.828;2022-11-20T04:57:28;99685.13;;;-2.64;100.00
45525;BME280;31437;58.350;13.828;2022-11-20T04:59:53;99675.72;;;-2.64;100.00
45525;BME280;31437;58.350;13.828;2022-11-20T05:02:19;99676.56;;;-2.63;100.00
45525;BME280;31437;58.350;13.828;2022-11-20T05:04:45;99685.94;;;-2.62;100.00
45525;BME280;31437;58.350;13.828;2022-11-20T05:07:10;99669.69;;;-2.63;100.00
45525;BME280;31437;58.350;13.828;2022-11-20T05:09:35;99676.56;;;-2.62;100.00
45525;BME280;31437;58.350;13.828;2022-11-20T05:12:00;99678.25;;;-2.62;100.00
45525;BME280;31437;58.350;13.828;2022-11-20T05:14:26;99676.56;;;-2.63;100.00
45525;BME280;31437;58.350;13.828;2022-11-20T05:16:51;99664.59;;;-2.64;100.00
45525;BME280;31437;58.350;13.828;2022-11-20T05:19:16;99671.41;;;-2.65;100.00
45525;BME280;31437;58.350;13.828;2022-11-20T05:21:42;99663.75;;;-2.68;100.00
45525;BME280;31437;58.350;13.828;2022-11-20T05:24:08;99660.34;;;-2.70;100.00
45525;BME280;31437;58.350;13.828;2022-11-20T05:26:33;99661.19;;;-2.71;100.00
45525;BME280;31437;58.350;13.828;2022-11-20T05:29:00;99656.09;;;-2.74;100.00
45525;BME280;31437;58.350;13.828;2022-11-20T05:31:25;99656.97;;;-2.77;100.00
45525;BME280;31437;58.350;13.828;2022-11-20T05:33:51;99652.75;;;-2.79;100.00
45525;BME280;31437;58.350;13.828;2022-11-20T05:36:17;99645.88;;;-2.80;100.00
45525;BME280;31437;58.350;13.828;2022-11-20T05:38:43;99645.91;;;-2.82;100.00
45525;BME280;31437;58.350;13.828;2022-11-20T05:41:13;99636.47;;;-2.83;100.00
45525;BME280;31437;58.350;13.828;2022-11-20T05:43:39;99636.50;;;-2.84;100.00
45525;BME280;31437;58.350;13.828;2022-11-20T05:46:05;99627.97;;;-2.85;100.00
45525;BME280;31437;58.350;13.828;2022-11-20T05:48:31;99642.53;;;-2.85;100.00
45525;BME280;31437;58.350;13.828;2022-11-20T05:50:58;99633.09;;;-2.86;100.00
45525;BME280;31437;58.350;13.828;2022-11-20T05:53:23;99636.53;;;-2.87;100.00
45525;BME280;31437;58.350;13.828;2022-11-20T05:56:06;99636.53;;;-2.87;100.00
45525;BME280;31437;58.350;13.828;2022-11-20T05:58:32;99630.56;;;-2.88;100.00
45525;BME280;31437;58.350;13.828;2022-11-20T06:01:05;99633.97;;;-2.87;100.00
45525;BME280;31437;58.350;13.828;2022-11-20T06:03:32;99639.94;;;-2.88;100.00
45525;BME280;31437;58.350;13.828;2022-11-20T06:06:01;99633.97;;;-2.87;100.00
45525;BME280;31437;58.350;13.828;2022-11-20T06:08:27;99638.25;;;-2.88;100.00
45525;BME280;31437;58.350;13.828;2022-11-20T06:10:53;99627.13;;;-2.87;100.00
45525;BME280;31437;58.350;13.828;2022-11-20T06:13:18;99632.25;;;-2.85;100.00
45525;BME280;31437;58.350;13.828;2022-11-20T06:15:52;99627.13;;;-2.87;100.00
45525;BME280;31437;58.350;13.828;2022-11-20T06:18:18;99633.09;;;-2.86;100.00
45525;BME280;31437;58.350;13.828;2022-11-20T06:20:44;99622.81;;;-2.86;100.00
45525;BME280;31437;58.350;13.828;2022-11-20T06:23:09;99624.56;;;-2.87;100.00
45525;BME280;31437;58.350;13.828;2022-11-20T06:25:41;99629.69;;;-2.87;100.00
45525;BME280;31437;58.350;13.828;2022-11-20T06:28:06;99626.25;;;-2.86;100.00
45525;BME280;31437;58.350;13.828;2022-11-20T06:30:32;99629.69;;;-2.85;100.00
45525;BME280;31437;58.350;13.828;2022-11-20T06:32:57;99615.97;;;-2.84;100.00
45525;BME280;31437;58.350;13.828;2022-11-20T06:35:22;99621.09;;;-2.84;100.00
45525;BME280;31437;58.350;13.828;2022-11-20T06:37:48;99621.97;;;-2.84;100.00
45525;BME280;31437;58.350;13.828;2022-11-20T06:40:14;99617.66;;;-2.83;100.00
45525;BME280;31437;58.350;13.828;2022-11-20T06:42:39;99611.69;;;-2.84;100.00
45525;BME280;31437;58.350;13.828;2022-11-20T06:45:05;99607.41;;;-2.83;100.00
45525;BME280;31437;58.350;13.828;2022-11-20T06:47:30;99600.53;;;-2.83;100.00
45525;BME280;31437;58.350;13.828;2022-11-20T06:49:55;99604.84;;;-2.82;100.00
45525;BME280;31437;58.350;13.828;2022-11-20T06:52:21;99595.41;;;-2.81;100.00
45525;BME280;31437;58.350;13.828;2022-11-20T06:54:46;99598.81;;;-2.81;100.00
45525;BME280;31437;58.350;13.828;2022-11-20T06:57:11;99604.00;;;-2.82;100.00
45525;BME280;31437;58.350;13.828;2022-11-20T06:59:36;99594.56;;;-2.82;100.00
45525;BME280;31437;58.350;13.828;2022-11-20T07:02:02;99604.84;;;-2.82;100.00
45525;BME280;31437;58.350;13.828;2022-11-20T07:04:27;99607.38;;;-2.80;100.00
45525;BME280;31437;58.350;13.828;2022-11-20T07:06:52;99600.53;;;-2.81;100.00
45525;BME280;31437;58.350;13.828;2022-11-20T07:09:17;99594.53;;;-2.80;100.00
45525;BME280;31437;58.350;13.828;2022-11-20T07:11:43;99601.38;;;-2.81;100.00
45525;BME280;31437;58.350;13.828;2022-11-20T07:14:09;99596.25;;;-2.81;100.00
45525;BME280;31437;58.350;13.828;2022-11-20T07:16:34;99601.38;;;-2.81;100.00
45525;BME280;31437;58.350;13.828;2022-11-20T07:18:59;99596.25;;;-2.79;100.00
45525;BME280;31437;58.350;13.828;2022-11-20T07:21:24;99595.38;;;-2.78;100.00
45525;BME280;31437;58.350;13.828;2022-11-20T07:23:50;99597.94;;;-2.78;100.00
45525;BME280;31437;58.350;13.828;2022-11-20T07:26:15;99587.66;;;-2.77;100.00
45525;BME280;31437;58.350;13.828;2022-11-20T07:28:43;99585.94;;;-2.76;100.00
45525;BME280;31437;58.350;13.828;2022-11-20T07:31:08;99585.94;;;-2.75;100.00
45525;BME280;31437;58.350;13.828;2022-11-20T07:33:34;99583.38;;;-2.76;100.00
45525;BME280;31437;58.350;13.828;2022-11-20T07:35:59;99591.06;;;-2.75;100.00
45525;BME280;31437;58.350;13.828;2022-11-20T07:38:25;99590.22;;;-2.73;100.00
45525;BME280;31437;58.350;13.828;2022-11-20T07:40:53;99579.06;;;-2.72;100.00
45525;BME280;31437;58.350;13.828;2022-11-20T07:43:18;99581.59;;;-2.71;100.00
45525;BME280;31437;58.350;13.828;2022-11-20T07:45:45;99579.03;;;-2.69;100.00
45525;BME280;31437;58.350;13.828;2022-11-20T07:48:13;99575.59;;;-2.68;100.00
45525;BME280;31437;58.350;13.828;2022-11-20T07:50:38;99579.00;;;-2.66;100.00
45525;BME280;31437;58.350;13.828;2022-11-20T07:53:04;99580.69;;;-2.65;100.00
45525;BME280;31437;58.350;13.828;2022-11-20T07:55:30;99578.13;;;-2.64;100.00
45525;BME280;31437;58.350;13.828;2022-11-20T07:57:55;99573.84;;;-2.63;100.00
45525;BME280;31437;58.350;13.828;2022-11-20T08:00:21;99568.66;;;-2.60;100.00
45525;BME280;31437;58.350;13.828;2022-11-20T08:02:46;99572.94;;;-2.58;100.00
45525;BME280;31437;58.350;13.828;2022-11-20T08:05:12;99580.63;;;-2.58;100.00
45525;BME280;31437;58.350;13.828;2022-11-20T08:07:38;99566.03;;;-2.54;100.00
45525;BME280;31437;58.350;13.828;2022-11-20T08:10:04;99562.53;;;-2.50;100.00
45525;BME280;31437;58.350;13.828;2022-11-20T08:12:29;99552.28;;;-2.50;100.00
45525;BME280;31437;58.350;13.828;2022-11-20T08:15:13;99553.13;;;-2.48;100.00
45525;BME280;31437;58.350;13.828;2022-11-20T08:17:38;99547.97;;;-2.46;100.00
45525;BME280;31437;58.350;13.828;2022-11-20T08:20:04;99547.09;;;-2.45;100.00
45525;BME280;31437;58.350;13.828;2022-11-20T08:22:29;99541.06;;;-2.43;100.00
45525;BME280;31437;58.350;13.828;2022-11-20T08:24:54;99543.56;;;-2.38;100.00
45525;BME280;31437;58.350;13.828;2022-11-20T08:27:20;99542.69;;;-2.34;100.00
45525;BME280;31437;58.350;13.828;2022-11-20T08:29:45;99540.94;;;-2.31;100.00
45525;BME280;31437;58.350;13.828;2022-11-20T08:32:10;99530.66;;;-2.29;100.00
45525;BME280;31437;58.350;13.828;2022-11-20T08:34:36;99528.88;;;-2.25;100.00
45525;BME280;31437;58.350;13.828;2022-11-20T08:37:01;99524.63;;;-2.28;100.00
45525;BME280;31437;58.350;13.828;2022-11-20T08:39:27;99529.72;;;-2.25;100.00
45525;BME280;31437;58.350;13.828;2022-11-20T08:41:52;99524.59;;;-2.25;100.00
45525;BME280;31437;58.350;13.828;2022-11-20T08:44:17;99528.84;;;-2.24;100.00
45525;BME280;31437;58.350;13.828;2022-11-20T08:46:42;99542.56;;;-2.26;100.00
45525;BME280;31437;58.350;13.828;2022-11-20T08:49:10;99530.59;;;-2.26;100.00
45525;BME280;31437;58.350;13.828;2022-11-20T08:51:37;99529.72;;;-2.23;100.00
45525;BME280;31437;58.350;13.828;2022-11-20T08:54:03;99524.53;;;-2.20;100.00
45525;BME280;31437;58.350;13.828;2022-11-20T08:56:28;99519.31;;;-2.16;100.00
45525;BME280;31437;58.350;13.828;2022-11-20T08:58:53;99525.25;;;-2.11;100.00
45525;BME280;31437;58.350;13.828;2022-11-20T09:01:19;99514.94;;;-2.08;100.00
45525;BME280;31437;58.350;13.828;2022-11-20T09:03:45;99500.34;;;-2.06;100.00
45525;BME280;31437;58.350;13.828;2022-11-20T09:06:10;99508.91;;;-2.07;100.00
45525;BME280;31437;58.350;13.828;2022-11-20T09:08:35;99495.19;;;-2.04;100.00
45525;BME280;31437;58.350;13.828;2022-11-20T09:11:03;99502.84;;;-2.01;100.00
45525;BME280;31437;58.350;13.828;2022-11-20T09:13:29;99500.22;;;-1.98;100.00
45525;BME280;31437;58.350;13.828;2022-11-20T09:15:55;99485.59;;;-1.94;100.00
45525;BME280;31437;58.350;13.828;2022-11-20T09:18:21;99488.97;;;-1.89;100.00
45525;BME280;31437;58.350;13.828;2022-11-20T09:36:16;99464.97;;;-1.88;100.00
45525;BME280;31437;58.350;13.828;2022-11-20T09:38:43;99462.41;;;-1.88;100.00
45525;BME280;31437;58.350;13.828;2022-11-20T09:41:19;99455.50;;;-1.86;100.00
45525;BME280;31437;58.350;13.828;2022-11-20T09:44:14;99458.06;;;-1.85;100.00
45525;BME280;31437;58.350;13.828;2022-11-20T09:49:17;99437.28;;;-1.72;100.00
45525;BME280;31437;58.350;13.828;2022-11-20T09:56:40;99432.97;;;-1.70;100.00
45525;BME280;31437;58.350;13.828;2022-11-20T09:59:12;99435.47;;;-1.66;100.00
45525;BME280;31437;58.350;13.828;2022-11-20T10:01:39;99426.00;;;-1.64;100.00
45525;BME280;31437;58.350;13.828;2022-11-20T10:04:08;99421.66;;;-1.60;100.00
45525;BME280;31437;58.350;13.828;2022-11-20T10:06:39;99422.47;;;-1.58;100.00
45525;BME280;31437;58.350;13.828;2022-11-20T10:09:28;99419.06;;;-1.58;100.00
45525;BME280;31437;58.350;13.828;2022-11-20T10:12:13;99424.13;;;-1.54;100.00
45525;BME280;31437;58.350;13.828;2022-11-20T11:24:02;99311.81;;;-1.55;100.00
45525;BME280;31437;58.350;13.828;2022-11-20T11:41:58;99299.25;;;-1.70;100.00
45525;BME280;31437;58.350;13.828;2022-11-20T11:46:58;99310.50;;;-1.76;100.00
45525;BME280;31437;58.350;13.828;2022-11-20T11:49:24;99299.31;;;-1.73;100.00
45525;BME280;31437;58.350;13.828;2022-11-20T11:54:24;99290.72;;;-1.74;100.00
45525;BME280;31437;58.350;13.828;2022-11-20T11:56:51;99295.09;;;-1.77;100.00
45525;BME280;31437;58.350;13.828;2022-11-20T11:59:22;99290.81;;;-1.78;100.00
45525;BME280;31437;58.350;13.828;2022-11-20T12:01:53;99285.63;;;-1.77;100.00
45525;BME280;31437;58.350;13.828;2022-11-20T12:07:38;99266.00;;;-1.81;100.00
45525;BME280;31437;58.350;13.828;2022-11-20T12:10:05;99266.03;;;-1.83;100.00
45525;BME280;31437;58.350;13.828;2022-11-20T12:12:36;99254.09;;;-1.85;100.00
45525;BME280;31437;58.350;13.828;2022-11-20T12:15:04;99261.81;;;-1.85;100.00
45525;BME280;31437;58.350;13.828;2022-11-20T12:17:29;99254.06;;;-1.84;100.00
45525;BME280;31437;58.350;13.828;2022-11-20T12:19:54;99243.84;;;-1.87;100.00
45525;BME280;31437;58.350;13.828;2022-11-20T12:22:29;99248.13;;;-1.87;100.00
45525;BME280;31437;58.350;13.828;2022-11-20T12:34:50;99232.59;;;-1.83;100.00
45525;BME280;31437;58.350;13.828;2022-11-20T12:39:43;99224.06;;;-1.83;100.00
45525;BME280;31437;58.350;13.828;2022-11-20T12:48:02;99233.56;;;-1.87;100.00
45525;BME280;31437;58.350;13.828;2022-11-20T12:55:58;99211.34;;;-1.91;100.00
45525;BME280;31437;58.350;13.828;2022-11-20T13:06:51;99204.63;;;-1.96;100.00
45525;BME280;31437;58.350;13.828;2022-11-20T13:09:17;99202.03;;;-1.96;100.00
45525;BME280;31437;58.350;13.828;2022-11-20T13:19:20;99189.25;;;-2.01;100.00
45525;BME280;31437;58.350;13.828;2022-11-20T13:21:47;99184.16;;;-2.02;100.00
45525;BME280;31437;58.350;13.828;2022-11-20T13:29:33;99179.03;;;-2.04;100.00
45525;BME280;31437;58.350;13.828;2022-11-20T13:32:06;99180.81;;;-2.08;100.00
45525;BME280;31437;58.350;13.828;2022-11-20T13:34:32;99174.84;;;-2.10;100.00
45525;BME280;31437;58.350;13.828;2022-11-20T13:36:58;99174.00;;;-2.09;100.00
45525;BME280;31437;58.350;13.828;2022-11-20T13:39:29;99177.44;;;-2.10;100.00
45525;BME280;31437;58.350;13.828;2022-11-20T13:41:56;99174.00;;;-2.09;100.00
45525;BME280;31437;58.350;13.828;2022-11-20T13:44:26;99166.34;;;-2.12;100.00
45525;BME280;31437;58.350;13.828;2022-11-20T13:46:52;99156.09;;;-2.13;100.00
45525;BME280;31437;58.350;13.828;2022-11-20T13:51:43;99156.09;;;-2.15;100.00
45525;BME280;31437;58.350;13.828;2022-11-20T13:59:52;99156.16;;;-2.16;100.00
45525;BME280;31437;58.350;13.828;2022-11-20T14:02:21;99157.00;;;-2.16;100.00
45525;BME280;31437;58.350;13.828;2022-11-20T14:04:48;99145.88;;;-2.18;100.00
45525;BME280;31437;58.350;13.828;2022-11-20T14:07:15;99158.72;;;-2.18;100.00
45525;BME280;31437;58.350;13.828;2022-11-20T14:09:49;99143.31;;;-2.18;100.00
45525;BME280;31437;58.350;13.828;2022-11-20T14:12:15;99145.03;;;-2.18;100.00
45525;BME280;31437;58.350;13.828;2022-11-20T14:14:47;99137.38;;;-2.20;100.00
45525;BME280;31437;58.350;13.828;2022-11-20T14:17:20;99129.66;;;-2.20;100.00
45525;BME280;31437;58.350;13.828;2022-11-20T14:19:47;99130.53;;;-2.21;100.00
45525;BME280;31437;58.350;13.828;2022-11-20T14:22:17;99134.88;;;-2.23;100.00
45525;BME280;31437;58.350;13.828;2022-11-20T14:24:46;99114.31;;;-2.23;100.00
45525;BME280;31437;58.350;13.828;2022-11-20T14:27:12;99124.59;;;-2.23;100.00
45525;BME280;31437;58.350;13.828;2022-11-20T14:29:38;99112.59;;;-2.24;100.00
45525;BME280;31437;58.350;13.828;2022-11-20T14:32:05;99111.75;;;-2.23;100.00
45525;BME280;31437;58.350;13.828;2022-11-20T14:34:31;99107.50;;;-2.25;100.00
45525;BME280;31437;58.350;13.828;2022-11-20T14:37:01;99107.50;;;-2.25;100.00
45525;BME280;31437;58.350;13.828;2022-11-20T14:39:31;99103.22;;;-2.26;100.00
45525;BME280;31437;58.350;13.828;2022-11-20T14:41:58;99103.22;;;-2.26;100.00
45525;BME280;31437;58.350;13.828;2022-11-20T14:44:25;99098.13;;;-2.28;100.00
45525;BME280;31437;58.350;13.828;2022-11-20T14:46:51;99097.31;;;-2.30;100.00
45525;BME280;31437;58.350;13.828;2022-11-20T14:49:17;99094.75;;;-2.30;100.00
45525;BME280;31437;58.350;13.828;2022-11-20T14:51:43;99080.34;;;-2.39;100.00
45525;BME280;31437;58.350;13.828;2022-11-20T14:54:09;99086.25;;;-2.32;100.00
45525;BME280;31437;58.350;13.828;2022-11-20T14:56:35;99087.06;;;-2.32;100.00
45525;BME280;31437;58.350;13.828;2022-11-20T14:59:00;99081.94;;;-2.32;100.00
45525;BME280;31437;58.350;13.828;2022-11-20T15:01:29;99075.97;;;-2.34;100.00
45525;BME280;31437;58.350;13.828;2022-11-20T15:04:04;99078.53;;;-2.34;100.00
45525;BME280;31437;58.350;13.828;2022-11-20T15:06:30;99084.53;;;-2.33;100.00
45525;BME280;31437;58.350;13.828;2022-11-20T15:08:56;99077.72;;;-2.34;100.00
45525;BME280;31437;58.350;13.828;2022-11-20T15:11:29;99067.44;;;-2.34;100.00
45525;BME280;31437;58.350;13.828;2022-11-20T15:13:55;99061.44;;;-2.35;100.00
45525;BME280;31437;58.350;13.828;2022-11-20T15:16:21;99064.88;;;-2.36;100.00
45525;BME280;31437;58.350;13.828;2022-11-20T15:18:48;99057.16;;;-2.36;100.00
45525;BME280;31437;58.350;13.828;2022-11-20T15:21:14;99051.19;;;-2.36;100.00
45525;BME280;31437;58.350;13.828;2022-11-20T15:23:39;99047.78;;;-2.37;100.00
45525;BME280;31437;58.350;13.828;2022-11-20T15:26:05;99044.31;;;-2.36;100.00
45525;BME280;31437;58.350;13.828;2022-11-20T15:28:31;99043.47;;;-2.36;100.00
45525;BME280;31437;58.350;13.828;2022-11-20T15:30:58;99037.50;;;-2.37;100.00
45525;BME280;31437;58.350;13.828;2022-11-20T15:33:23;99028.97;;;-2.37;100.00
45525;BME280;31437;58.350;13.828;2022-11-20T15:35:48;99029.81;;;-2.37;100.00
45525;BME280;31437;58.350;13.828;2022-11-20T15:38:14;99022.09;;;-2.37;100.00
45525;BME280;31437;58.350;13.828;2022-11-20T15:40:39;99016.97;;;-2.37;100.00
45525;BME280;31437;58.350;13.828;2022-11-20T15:43:04;99012.66;;;-2.36;100.00
45525;BME280;31437;58.350;13.828;2022-11-20T15:45:40;99014.38;;;-2.35;100.00
45525;BME280;31437;58.350;13.828;2022-11-20T15:48:19;99009.25;;;-2.35;100.00
45525;BME280;31437;58.350;13.828;2022-11-20T15:53:16;99002.31;;;-2.33;100.00
45525;BME280;31437;58.350;13.828;2022-11-20T15:55:41;99003.16;;;-2.33;100.00
45525;BME280;31437;58.350;13.828;2022-11-20T15:58:07;99002.31;;;-2.32;100.00
45525;BME280;31437;58.350;13.828;2022-11-20T16:00:32;99008.28;;;-2.31;100.00
45525;BME280;31437;58.350;13.828;2022-11-20T16:02:57;98986.13;;;-2.37;100.00
45525;BME280;31437;58.350;13.828;2022-11-20T16:05:23;98996.31;;;-2.32;100.00
45525;BME280;31437;58.350;13.828;2022-11-20T16:07:48;98996.31;;;-2.32;100.00
45525;BME280;31437;58.350;13.828;2022-11-20T16:10:14;98998.91;;;-2.32;100.00
45525;BME280;31437;58.350;13.828;2022-11-20T16:12:40;98992.03;;;-2.33;100.00
45525;BME280;31437;58.350;13.828;2022-11-20T16:15:23;98988.63;;;-2.34;100.00
45525;BME280;31437;58.350;13.828;2022-11-20T16:18:08;98976.69;;;-2.36;100.00
45525;BME280;31437;58.350;13.828;2022-11-20T16:20:33;98977.53;;;-2.36;100.00
45525;BME280;31437;58.350;13.828;2022-11-20T16:23:00;98970.75;;;-2.38;100.00
45525;BME280;31437;58.350;13.828;2022-11-20T16:25:26;98973.31;;;-2.38;100.00
45525;BME280;31437;58.350;13.828;2022-11-20T16:27:51;98975.09;;;-2.40;100.00
45525;BME280;31437;58.350;13.828;2022-11-20T16:30:17;98969.94;;;-2.40;100.00
45525;BME280;31437;58.350;13.828;2022-11-20T16:32:42;98968.22;;;-2.41;100.00
45525;BME280;31437;58.350;13.828;2022-11-20T16:35:07;98961.41;;;-2.42;100.00
45525;BME280;31437;58.350;13.828;2022-11-20T16:37:33;98958.84;;;-2.42;100.00
45525;BME280;31437;58.350;13.828;2022-11-20T16:39:58;98953.72;;;-2.42;100.00
45525;BME280;31437;58.350;13.828;2022-11-20T16:42:23;98953.75;;;-2.44;100.00
45525;BME280;31437;58.350;13.828;2022-11-20T16:44:49;98955.47;;;-2.44;100.00
45525;BME280;31437;58.350;13.828;2022-11-20T16:47:14;98952.88;;;-2.44;100.00
45525;BME280;31437;58.350;13.828;2022-11-20T16:49:39;98946.06;;;-2.45;100.00
45525;BME280;31437;58.350;13.828;2022-11-20T16:52:04;98948.66;;;-2.45;100.00
45525;BME280;31437;58.350;13.828;2022-11-20T16:54:30;98945.22;;;-2.46;100.00
45525;BME280;31437;58.350;13.828;2022-11-20T16:56:55;98929.84;;;-2.47;100.00
45525;BME280;31437;58.350;13.828;2022-11-20T16:59:20;98926.44;;;-2.48;100.00
45525;BME280;31437;58.350;13.828;2022-11-20T17:01:45;98934.97;;;-2.47;100.00
45525;BME280;31437;58.350;13.828;2022-11-20T17:04:11;98931.56;;;-2.48;100.00
45525;BME280;31437;58.350;13.828;2022-11-20T17:06:37;98926.47;;;-2.49;100.00
45525;BME280;31437;58.350;13.828;2022-11-20T17:09:04;98930.75;;;-2.50;100.00
45525;BME280;31437;58.350;13.828;2022-11-20T17:11:30;98925.63;;;-2.50;100.00
45525;BME280;31437;58.350;13.828;2022-11-20T17:13:56;98920.47;;;-2.50;100.00
45525;BME280;31437;58.350;13.828;2022-11-20T17:16:22;98918.78;;;-2.51;100.00
45525;BME280;31437;58.350;13.828;2022-11-20T17:18:48;98911.16;;;-2.53;100.00
45525;BME280;31437;58.350;13.828;2022-11-20T17:21:14;98906.84;;;-2.52;100.00
45525;BME280;31437;58.350;13.828;2022-11-20T17:23:40;98914.50;;;-2.51;100.00
45525;BME280;31437;58.350;13.828;2022-11-20T17:26:10;98899.16;;;-2.52;100.00
45525;BME280;31437;58.350;13.828;2022-11-20T17:28:36;98901.72;;;-2.52;100.00
45525;BME280;31437;58.350;13.828;2022-11-20T17:31:02;98896.56;;;-2.52;100.00
45525;BME280;31437;58.350;13.828;2022-11-20T17:33:28;98895.75;;;-2.54;100.00
45525;BME280;31437;58.350;13.828;2022-11-20T17:35:54;98889.72;;;-2.53;100.00
45525;BME280;31437;58.350;13.828;2022-11-20T17:38:19;98892.34;;;-2.55;100.00
45525;BME280;31437;58.350;13.828;2022-11-20T17:40:44;98887.22;;;-2.56;100.00
45525;BME280;31437;58.350;13.828;2022-11-20T17:43:10;98888.09;;;-2.56;100.00
45525;BME280;31437;58.350;13.828;2022-11-20T17:45:37;98876.97;;;-2.56;100.00
45525;BME280;31437;58.350;13.828;2022-11-20T17:48:02;98876.13;;;-2.57;100.00
45525;BME280;31437;58.350;13.828;2022-11-20T17:50:27;98876.13;;;-2.57;100.00
45525;BME280;31437;58.350;13.828;2022-11-20T17:52:53;98877.84;;;-2.57;100.00
45525;BME280;31437;58.350;13.828;2022-11-20T17:55:18;98868.47;;;-2.58;100.00
45525;BME280;31437;58.350;13.828;2022-11-20T17:57:43;98871.06;;;-2.60;100.00